Time;durP1;ratioP1;P1;durP2;ratioP2;P2;SDS_P1;SDS_P2;PMS_P1;PMS_P2;Temp;Humidity;BMP_temperature;BMP_pressure;BME280_temperature;BME280_humidity;BME280_pressure;Samples;Min_cycle;Max_cycle;Signal;HPM_P1;HPM_P2
2023/12/15 00:01:11;;;;;;;11.97;9.63;;;4.20;99.90;;;;;;4996916;28;20140;-84
2023/12/15 00:03:36;;;;;;;12.13;9.20;;;4.20;99.90;;;;;;4998031;28;20924;-88
2023/12/15 00:06:02;;;;;;;13.40;10.20;;;4.20;99.90;;;;;;4996321;28;20034;-84
2023/12/15 00:08:28;;;;;;;13.73;10.03;;;4.20;99.90;;;;;;4999381;28;20026;-84
2023/12/15 00:10:53;;;;;;;16.33;11.27;;;4.20;99.90;;;;;;4999802;28;20034;-85
2023/12/15 00:13:19;;;;;;;17.27;12.33;;;4.20;99.90;;;;;;4999390;28;20493;-84
2023/12/15 00:15:45;;;;;;;16.87;12.07;;;4.20;99.90;;;;;;4999266;28;20146;-85
2023/12/15 00:18:10;;;;;;;15.53;11.77;;;4.20;99.90;;;;;;4998315;28;20073;-85
2023/12/15 00:20:35;;;;;;;17.10;13.37;;;4.20;99.90;;;;;;4979620;28;20030;-84
2023/12/15 00:23:01;;;;;;;18.77;13.10;;;4.20;99.90;;;;;;5001465;28;20037;-85
2023/12/15 00:25:27;;;;;;;18.77;13.57;;;4.20;99.90;;;;;;4999119;28;20038;-85
2023/12/15 00:27:52;;;;;;;19.13;14.37;;;4.20;99.90;;;;;;4996089;28;20575;-84
2023/12/15 00:30:17;;;;;;;20.53;14.60;;;4.20;99.90;;;;;;4997881;28;20030;-84
2023/12/15 00:32:44;;;;;;;20.33;14.20;;;4.20;99.90;;;;;;5000002;28;20053;-85
2023/12/15 00:35:09;;;;;;;21.40;15.17;;;4.20;99.90;;;;;;4998605;28;20030;-84
2023/12/15 00:37:35;;;;;;;20.17;14.50;;;4.20;99.90;;;;;;4998526;28;20717;-85
2023/12/15 00:40:01;;;;;;;22.00;15.90;;;4.20;99.90;;;;;;5000831;28;20117;-86
2023/12/15 00:42:26;;;;;;;23.60;16.93;;;4.20;99.90;;;;;;4998931;28;20128;-85
2023/12/15 00:44:52;;;;;;;24.80;17.53;;;4.20;99.90;;;;;;4997566;28;20053;-85
2023/12/15 00:47:18;;;;;;;25.70;17.07;;;4.20;99.90;;;;;;4999812;28;20034;-84
2023/12/15 00:49:43;;;;;;;25.50;17.20;;;4.20;99.90;;;;;;5000833;28;20481;-85
2023/12/15 00:52:09;;;;;;;28.33;18.33;;;4.20;99.90;;;;;;4998123;28;20500;-86
2023/12/15 00:54:34;;;;;;;25.30;16.63;;;4.20;99.90;;;;;;5000972;28;20106;-84
2023/12/15 00:57:00;;;;;;;25.03;17.23;;;4.20;99.90;;;;;;5000874;28;20026;-84
2023/12/15 00:59:26;;;;;;;28.73;18.30;;;4.20;99.90;;;;;;4997689;28;20030;-86
2023/12/15 01:01:52;;;;;;;26.20;17.97;;;4.20;99.90;;;;;;4997884;28;20041;-86
2023/12/15 01:04:17;;;;;;;25.33;17.40;;;4.20;99.90;;;;;;5002126;28;20084;-85
2023/12/15 01:06:43;;;;;;;25.40;17.10;;;4.20;99.90;;;;;;5000864;28;20044;-86
2023/12/15 01:09:09;;;;;;;23.70;15.63;;;4.20;99.90;;;;;;5001527;28;20042;-84
2023/12/15 01:11:34;;;;;;;25.40;16.83;;;4.20;99.90;;;;;;5002265;28;20030;-85
2023/12/15 01:14:00;;;;;;;27.60;17.87;;;4.20;99.90;;;;;;5003741;28;20025;-86
2023/12/15 01:16:25;;;;;;;25.23;17.23;;;4.20;99.90;;;;;;5002058;28;20030;-86
2023/12/15 01:18:51;;;;;;;24.60;16.90;;;4.20;99.90;;;;;;5001358;28;20046;-85
2023/12/15 01:21:16;;;;;;;25.00;17.20;;;4.20;99.90;;;;;;5002906;28;20026;-85
2023/12/15 01:23:42;;;;;;;25.33;18.13;;;4.20;99.90;;;;;;5001742;28;20022;-85
2023/12/15 01:26:07;;;;;;;26.80;16.93;;;4.20;99.90;;;;;;5003232;28;21426;-85
2023/12/15 01:28:33;;;;;;;22.13;15.00;;;4.20;99.90;;;;;;5001922;28;20033;-86
2023/12/15 01:31:01;;;;;;;22.57;14.77;;;4.20;99.90;;;;;;5008534;28;20116;-86
2023/12/15 01:33:27;;;;;;;23.60;15.90;;;4.10;99.90;;;;;;5007653;28;20033;-85
2023/12/15 01:35:52;;;;;;;24.23;16.77;;;4.10;99.90;;;;;;5002030;28;20044;-85
2023/12/15 01:38:18;;;;;;;23.60;16.57;;;4.10;99.90;;;;;;5009587;28;20038;-85
2023/12/15 01:40:44;;;;;;;26.30;16.10;;;4.10;99.90;;;;;;5002862;28;20026;-86
2023/12/15 01:43:09;;;;;;;21.73;15.57;;;4.10;99.90;;;;;;5001941;28;20535;-85
2023/12/15 01:45:35;;;;;;;21.90;14.63;;;4.10;99.90;;;;;;5003188;28;20274;-85
2023/12/15 01:48:01;;;;;;;21.30;14.37;;;4.00;99.90;;;;;;5003505;28;20113;-85
2023/12/15 01:50:27;;;;;;;22.80;14.07;;;4.00;99.90;;;;;;5003545;28;20033;-85
2023/12/15 01:52:52;;;;;;;18.97;12.50;;;4.00;99.90;;;;;;5000955;28;20037;-85
2023/12/15 01:55:18;;;;;;;15.23;10.50;;;4.00;99.90;;;;;;5003131;28;20045;-86
2023/12/15 01:57:44;;;;;;;12.30;9.27;;;4.00;99.90;;;;;;5005125;28;20038;-86
2023/12/15 02:00:10;;;;;;;12.00;8.27;;;3.90;99.90;;;;;;5001381;28;20776;-85
2023/12/15 02:02:35;;;;;;;10.87;8.10;;;3.90;99.90;;;;;;5000700;28;20037;-87
2023/12/15 02:05:04;;;;;;;11.83;8.50;;;3.90;99.90;;;;;;5003546;28;20025;-85
2023/12/15 02:07:30;;;;;;;13.50;8.03;;;3.80;99.90;;;;;;4982358;28;20034;-83
2023/12/15 02:09:58;;;;;;;9.30;6.70;;;3.80;99.90;;;;;;5001155;28;20033;-84
2023/12/15 02:12:23;;;;;;;11.93;7.50;;;3.80;99.90;;;;;;5001204;28;20026;-84
2023/12/15 02:14:49;;;;;;;11.90;7.30;;;3.80;99.90;;;;;;4999429;28;20080;-84
2023/12/15 02:17:14;;;;;;;10.77;7.13;;;3.70;99.90;;;;;;4978151;28;20033;-84
2023/12/15 02:19:40;;;;;;;8.97;6.80;;;3.70;99.90;;;;;;4985341;28;20026;-84
2023/12/15 02:22:05;;;;;;;11.43;7.37;;;3.70;99.90;;;;;;5000117;28;20481;-84
2023/12/15 02:24:31;;;;;;;10.17;6.87;;;3.70;99.90;;;;;;5001923;28;20095;-84
2023/12/15 02:26:57;;;;;;;9.67;6.80;;;3.70;99.90;;;;;;5001054;28;20037;-84
2023/12/15 02:29:23;;;;;;;9.40;7.07;;;3.70;99.90;;;;;;4998151;28;20487;-83
2023/12/15 02:31:48;;;;;;;10.83;7.03;;;3.70;99.90;;;;;;5001015;28;20161;-84
2023/12/15 02:34:14;;;;;;;10.90;7.23;;;3.70;99.90;;;;;;5002228;28;20026;-83
2023/12/15 02:36:40;;;;;;;11.17;7.40;;;3.60;99.90;;;;;;5000299;28;20030;-83
2023/12/15 02:39:05;;;;;;;12.13;7.43;;;3.60;99.90;;;;;;5001030;28;20412;-84
2023/12/15 02:41:32;;;;;;;10.27;7.50;;;3.60;99.90;;;;;;4999748;28;20030;-84
2023/12/15 02:43:57;;;;;;;11.23;7.87;;;3.60;99.90;;;;;;5000319;28;20022;-84
2023/12/15 02:46:23;;;;;;;11.97;7.73;;;3.60;99.90;;;;;;4992856;28;20114;-85
2023/12/15 02:48:48;;;;;;;11.17;7.63;;;3.60;99.90;;;;;;4990362;28;20172;-85
2023/12/15 02:51:25;;;;;;;11.87;8.33;;;3.60;99.90;;;;;;5002226;28;20519;-84
2023/12/15 02:53:50;;;;;;;12.33;8.07;;;3.60;99.90;;;;;;5000538;28;20033;-84
2023/12/15 02:56:16;;;;;;;12.43;8.63;;;3.60;99.90;;;;;;4999672;28;20489;-84
2023/12/15 02:58:41;;;;;;;14.87;8.97;;;3.60;99.90;;;;;;4998874;28;20133;-84
2023/12/15 03:01:07;;;;;;;12.40;8.47;;;3.60;99.90;;;;;;5000783;28;20033;-84
2023/12/15 03:03:33;;;;;;;13.77;8.50;;;3.60;99.90;;;;;;5001215;28;20109;-84
2023/12/15 03:05:59;;;;;;;13.40;9.37;;;3.70;99.90;;;;;;5000269;28;20026;-84
2023/12/15 03:08:27;;;;;;;14.50;9.10;;;3.70;99.90;;;;;;4999721;28;21592;-84
2023/12/15 03:10:57;;;;;;;12.77;8.77;;;3.70;99.90;;;;;;5000703;28;20049;-84
2023/12/15 03:13:23;;;;;;;13.73;9.23;;;3.70;99.90;;;;;;4999250;28;20083;-84
2023/12/15 03:15:48;;;;;;;13.80;9.60;;;3.70;99.90;;;;;;5000619;28;20084;-85
2023/12/15 03:18:14;;;;;;;14.77;9.90;;;3.70;99.90;;;;;;5000786;28;20030;-84
2023/12/15 03:20:39;;;;;;;15.67;10.57;;;3.70;99.90;;;;;;4999852;28;20030;-84
2023/12/15 03:23:05;;;;;;;15.00;10.90;;;3.70;99.90;;;;;;4999240;28;20026;-85
2023/12/15 03:25:30;;;;;;;15.07;9.67;;;3.70;99.90;;;;;;4999292;28;20034;-84
2023/12/15 03:27:56;;;;;;;15.10;9.70;;;3.70;99.90;;;;;;4999905;28;20120;-84
2023/12/15 03:30:21;;;;;;;16.33;10.93;;;3.70;99.90;;;;;;5000561;28;20076;-84
2023/12/15 03:32:47;;;;;;;15.17;10.30;;;3.70;99.90;;;;;;5000715;28;20026;-84
2023/12/15 03:35:12;;;;;;;16.03;10.80;;;3.70;99.90;;;;;;4998950;28;20026;-84
2023/12/15 03:37:38;;;;;;;17.47;11.43;;;3.70;99.90;;;;;;4998772;28;20128;-84
2023/12/15 03:40:04;;;;;;;16.70;10.87;;;3.70;99.90;;;;;;4999345;28;20061;-85
2023/12/15 03:42:30;;;;;;;15.90;10.37;;;3.70;99.90;;;;;;5000076;28;20109;-84
2023/12/15 03:44:55;;;;;;;17.47;11.40;;;3.70;99.90;;;;;;5000156;28;20076;-84
2023/12/15 03:47:21;;;;;;;18.07;11.53;;;3.60;99.90;;;;;;5003622;28;20026;-85
2023/12/15 03:49:46;;;;;;;19.50;11.70;;;3.70;99.90;;;;;;5005231;28;20060;-84
2023/12/15 03:52:12;;;;;;;16.33;11.60;;;3.70;99.90;;;;;;5001508;28;20142;-84
2023/12/15 03:54:37;;;;;;;17.40;11.30;;;3.70;99.90;;;;;;5005998;28;20496;-84
2023/12/15 03:57:03;;;;;;;17.37;11.77;;;3.70;99.90;;;;;;5000204;28;20034;-84
2023/12/15 03:59:29;;;;;;;17.23;11.30;;;3.70;99.90;;;;;;4998519;28;20034;-84
2023/12/15 04:01:54;;;;;;;17.27;11.40;;;3.60;99.90;;;;;;4998456;28;20041;-84
2023/12/15 04:04:20;;;;;;;14.17;10.40;;;3.60;99.90;;;;;;4999066;28;20026;-85
2023/12/15 04:06:45;;;;;;;17.27;11.67;;;3.60;99.90;;;;;;5000976;28;20034;-84
2023/12/15 04:09:11;;;;;;;15.57;11.07;;;3.60;99.90;;;;;;4999810;28;20045;-84
2023/12/15 04:11:37;;;;;;;15.27;10.67;;;3.60;99.90;;;;;;4999416;28;20084;-84
2023/12/15 04:14:04;;;;;;;15.37;11.13;;;3.60;99.90;;;;;;4998101;28;20089;-84
2023/12/15 04:16:30;;;;;;;16.60;10.63;;;3.60;99.90;;;;;;5002238;28;20022;-84
2023/12/15 04:18:55;;;;;;;16.57;10.87;;;3.50;99.90;;;;;;4999993;28;21694;-85
2023/12/15 04:21:21;;;;;;;13.73;10.27;;;3.50;99.90;;;;;;4999668;28;20034;-84
2023/12/15 04:23:47;;;;;;;17.13;11.40;;;3.50;99.90;;;;;;4983931;28;20034;-86
2023/12/15 04:26:12;;;;;;;15.33;11.23;;;3.50;99.90;;;;;;4999510;28;20030;-84
2023/12/15 04:28:38;;;;;;;14.17;9.60;;;3.50;99.90;;;;;;5000226;28;20045;-84
2023/12/15 04:31:03;;;;;;;17.20;11.23;;;3.50;99.90;;;;;;4999479;28;20058;-86
2023/12/15 04:33:29;;;;;;;15.97;10.87;;;3.50;99.90;;;;;;4981366;28;20078;-84
2023/12/15 04:35:54;;;;;;;14.77;10.47;;;3.50;99.90;;;;;;5004253;28;20022;-84
2023/12/15 04:38:20;;;;;;;17.67;11.47;;;3.50;99.90;;;;;;5004298;28;20092;-84
2023/12/15 04:40:45;;;;;;;17.87;11.90;;;3.50;99.90;;;;;;5002859;28;20042;-86
2023/12/15 04:43:11;;;;;;;16.93;11.53;;;3.50;99.90;;;;;;5003279;28;20034;-85
2023/12/15 04:45:37;;;;;;;15.63;10.80;;;3.50;99.90;;;;;;5006548;28;20040;-84
2023/12/15 04:48:03;;;;;;;14.70;10.43;;;3.50;99.90;;;;;;5004776;28;20416;-84
2023/12/15 04:50:28;;;;;;;16.47;11.10;;;3.50;99.90;;;;;;5006993;28;20034;-84
2023/12/15 04:52:55;;;;;;;15.43;10.17;;;3.50;99.90;;;;;;5007289;28;20102;-85
2023/12/15 04:55:20;;;;;;;17.27;11.03;;;3.50;99.90;;;;;;5007488;28;20481;-84
2023/12/15 04:57:46;;;;;;;14.83;10.43;;;3.50;99.90;;;;;;5005047;28;20061;-85
2023/12/15 05:00:12;;;;;;;15.87;10.17;;;3.50;99.90;;;;;;5004062;28;20030;-85
2023/12/15 05:02:37;;;;;;;16.67;11.10;;;3.50;99.90;;;;;;5002358;28;20038;-85
2023/12/15 05:05:03;;;;;;;15.43;10.47;;;3.40;99.90;;;;;;5004101;28;20034;-86
2023/12/15 05:07:29;;;;;;;15.10;9.53;;;3.40;99.90;;;;;;5002479;28;20113;-84
2023/12/15 05:09:54;;;;;;;17.03;10.63;;;3.40;99.90;;;;;;5003345;28;20112;-84
2023/12/15 05:12:20;;;;;;;17.33;11.43;;;3.40;99.90;;;;;;5002056;28;20033;-85
2023/12/15 05:14:45;;;;;;;18.17;11.10;;;3.50;99.90;;;;;;5003666;28;20038;-84
2023/12/15 05:17:11;;;;;;;14.57;9.43;;;3.40;99.90;;;;;;5002774;28;20041;-84
2023/12/15 05:19:37;;;;;;;14.97;9.47;;;3.40;99.90;;;;;;5001473;28;20065;-85
2023/12/15 05:22:02;;;;;;;40.80;24.97;;;3.50;99.90;;;;;;4985635;28;20028;-85
2023/12/15 05:24:31;;;;;;;15.53;10.17;;;3.50;99.90;;;;;;5002578;28;20477;-84
2023/12/15 05:26:57;;;;;;;18.53;10.53;;;3.50;99.90;;;;;;5001761;28;20042;-84
2023/12/15 05:29:23;;;;;;;15.13;10.30;;;3.40;99.90;;;;;;5002567;28;20555;-84
2023/12/15 05:31:48;;;;;;;14.50;9.87;;;3.40;99.90;;;;;;5001894;28;20026;-84
2023/12/15 05:34:14;;;;;;;16.87;9.27;;;3.40;99.90;;;;;;5002304;28;20111;-84
2023/12/15 05:36:40;;;;;;;16.43;10.00;;;3.40;99.90;;;;;;5003438;28;20596;-85
2023/12/15 05:39:05;;;;;;;16.57;10.97;;;3.40;99.90;;;;;;5003038;28;20025;-85
2023/12/15 05:41:31;;;;;;;16.57;11.03;;;3.40;99.90;;;;;;5000799;28;20026;-84
2023/12/15 05:43:56;;;;;;;24.10;11.90;;;3.30;99.90;;;;;;5001393;28;20056;-85
2023/12/15 05:46:22;;;;;;;19.47;11.13;;;3.30;99.90;;;;;;5003808;28;20022;-84
2023/12/15 05:48:47;;;;;;;19.27;11.37;;;3.40;99.90;;;;;;4999870;28;20038;-84
2023/12/15 05:51:13;;;;;;;18.80;11.50;;;3.30;99.90;;;;;;4996560;28;20409;-84
2023/12/15 05:53:38;;;;;;;23.50;13.07;;;3.30;99.90;;;;;;5001198;28;20502;-86
2023/12/15 05:56:04;;;;;;;22.73;13.20;;;3.30;99.90;;;;;;5001173;28;20034;-85
2023/12/15 05:58:30;;;;;;;19.67;12.93;;;3.30;99.90;;;;;;5002824;28;20901;-84
2023/12/15 06:00:56;;;;;;;20.43;12.30;;;3.40;99.90;;;;;;5000944;28;20093;-85
2023/12/15 06:03:21;;;;;;;17.90;11.10;;;3.40;99.90;;;;;;4982867;28;20040;-81
2023/12/15 06:05:47;;;;;;;19.00;12.03;;;3.40;99.90;;;;;;4998840;28;20420;-79
2023/12/15 06:08:13;;;;;;;19.70;11.80;;;3.40;99.90;;;;;;4999414;28;20068;-80
2023/12/15 06:10:40;;;;;;;21.37;12.43;;;3.30;99.90;;;;;;5000382;28;20109;-80
2023/12/15 06:13:06;;;;;;;20.07;12.07;;;3.30;99.90;;;;;;4997393;28;20034;-80
2023/12/15 06:15:31;;;;;;;18.20;12.07;;;3.30;99.90;;;;;;4998792;28;20057;-80
2023/12/15 06:17:57;;;;;;;21.13;12.47;;;3.30;99.90;;;;;;4999417;28;20049;-80
2023/12/15 06:20:22;;;;;;;20.67;13.10;;;3.30;99.90;;;;;;4996739;28;20030;-80
2023/12/15 06:22:48;;;;;;;26.23;12.83;;;3.30;99.90;;;;;;4999237;28;20038;-80
2023/12/15 06:25:13;;;;;;;20.47;11.10;;;3.30;99.90;;;;;;4986826;28;20026;-80
2023/12/15 06:27:39;;;;;;;20.63;12.67;;;3.30;99.90;;;;;;4993792;28;20196;-80
2023/12/15 06:30:05;;;;;;;21.17;12.70;;;3.20;99.90;;;;;;4998440;28;20033;-80
2023/12/15 06:32:30;;;;;;;22.83;13.03;;;3.20;99.90;;;;;;4999477;28;20709;-80
2023/12/15 06:34:56;;;;;;;21.07;12.80;;;3.20;99.90;;;;;;4997172;28;20021;-80
2023/12/15 06:37:21;;;;;;;22.20;14.13;;;3.20;99.90;;;;;;4999942;28;20072;-80
2023/12/15 06:39:47;;;;;;;22.50;13.50;;;3.20;99.90;;;;;;4999382;28;20394;-80
2023/12/15 06:42:13;;;;;;;24.27;14.03;;;3.20;99.90;;;;;;4997546;28;20034;-80
2023/12/15 06:44:39;;;;;;;24.63;13.90;;;3.20;99.90;;;;;;4996048;28;20399;-80
2023/12/15 06:47:05;;;;;;;22.30;13.40;;;3.20;99.90;;;;;;4995096;28;20053;-80
2023/12/15 06:49:31;;;;;;;20.80;13.03;;;3.10;99.90;;;;;;4997623;28;20034;-80
2023/12/15 06:51:57;;;;;;;25.47;14.17;;;3.10;99.90;;;;;;4997163;28;20035;-80
2023/12/15 06:54:23;;;;;;;21.83;13.17;;;3.10;99.90;;;;;;4995595;28;20482;-80
2023/12/15 06:56:48;;;;;;;25.07;14.33;;;3.10;99.90;;;;;;4999706;28;20034;-80
2023/12/15 06:59:14;;;;;;;22.57;14.00;;;3.10;99.90;;;;;;4996911;28;20092;-80
2023/12/15 07:01:39;;;;;;;21.80;14.20;;;3.10;99.90;;;;;;4995711;28;20050;-80
2023/12/15 07:04:05;;;;;;;21.13;13.97;;;3.10;99.90;;;;;;4997188;28;20034;-81
2023/12/15 07:06:30;;;;;;;20.43;12.83;;;3.10;99.90;;;;;;4998924;28;20459;-80
2023/12/15 07:08:57;;;;;;;21.43;13.07;;;3.10;99.90;;;;;;4995768;28;20650;-80
2023/12/15 07:11:22;;;;;;;19.97;12.80;;;3.10;99.90;;;;;;4999119;28;20120;-80
2023/12/15 07:13:48;;;;;;;18.17;11.57;;;3.20;99.90;;;;;;4998959;28;20206;-79
2023/12/15 07:16:13;;;;;;;18.77;12.77;;;3.20;99.90;;;;;;4995260;28;20042;-80
2023/12/15 07:18:39;;;;;;;21.97;13.07;;;3.20;99.90;;;;;;4994960;28;20027;-79
2023/12/15 07:21:05;;;;;;;22.17;13.70;;;3.20;99.90;;;;;;4997641;28;20030;-80
2023/12/15 07:23:31;;;;;;;21.60;12.83;;;3.10;99.90;;;;;;4996563;28;20035;-80
2023/12/15 07:25:56;;;;;;;20.17;12.87;;;3.10;99.90;;;;;;4995878;28;20027;-80
2023/12/15 07:28:22;;;;;;;20.73;12.30;;;3.20;99.90;;;;;;4996703;28;20037;-80
2023/12/15 07:30:47;;;;;;;22.87;13.70;;;3.20;99.90;;;;;;4997589;28;20026;-80
2023/12/15 07:33:13;;;;;;;17.90;12.10;;;3.20;99.90;;;;;;4996009;28;20709;-80
2023/12/15 07:35:38;;;;;;;16.37;10.80;;;3.20;99.90;;;;;;4997184;28;20072;-80
2023/12/15 07:38:04;;;;;;;18.97;13.17;;;3.20;99.90;;;;;;4994791;28;20027;-80
2023/12/15 07:40:29;;;;;;;19.87;12.07;;;3.20;99.90;;;;;;4997642;28;20382;-80
2023/12/15 07:42:55;;;;;;;17.90;11.33;;;3.20;99.90;;;;;;4998304;28;20065;-81
2023/12/15 07:45:20;;;;;;;19.53;11.63;;;3.20;99.90;;;;;;4999189;28;20050;-79
2023/12/15 07:47:47;;;;;;;18.43;11.70;;;3.20;99.90;;;;;;4995951;28;20049;-79
2023/12/15 07:50:13;;;;;;;17.40;11.13;;;3.20;99.90;;;;;;4996345;28;20045;-79
2023/12/15 07:52:38;;;;;;;15.27;10.40;;;3.20;99.90;;;;;;4997360;28;20128;-80
2023/12/15 07:55:04;;;;;;;17.03;10.73;;;3.30;99.90;;;;;;4998295;28;20369;-80
2023/12/15 07:57:32;;;;;;;16.40;11.60;;;3.30;99.90;;;;;;4998275;28;21001;-80
2023/12/15 07:59:58;;;;;;;17.40;10.37;;;3.30;99.90;;;;;;4991930;28;20038;-80
2023/12/15 08:02:24;;;;;;;14.70;10.27;;;3.30;99.90;;;;;;4996277;28;20030;-80
2023/12/15 08:04:50;;;;;;;16.87;10.70;;;3.30;99.90;;;;;;4977811;28;20046;-80
2023/12/15 08:07:15;;;;;;;16.37;11.07;;;3.30;99.90;;;;;;4997967;28;20060;-80
2023/12/15 08:09:41;;;;;;;16.00;10.50;;;3.30;99.90;;;;;;4996023;28;20125;-80
2023/12/15 08:12:07;;;;;;;16.43;9.53;;;3.30;99.90;;;;;;4995090;28;20035;-79
2023/12/15 08:14:32;;;;;;;15.60;10.67;;;3.30;99.90;;;;;;4998639;28;20037;-79
2023/12/15 08:16:58;;;;;;;16.00;10.57;;;3.30;99.90;;;;;;5001271;28;20125;-80
2023/12/15 08:19:23;;;;;;;14.80;10.23;;;3.30;99.90;;;;;;4996658;28;20062;-80
2023/12/15 08:21:49;;;;;;;16.53;10.13;;;3.30;99.90;;;;;;4997472;28;20121;-79
2023/12/15 08:24:14;;;;;;;17.00;10.23;;;3.30;99.90;;;;;;4997333;28;20259;-80
2023/12/15 08:26:40;;;;;;;14.50;10.00;;;3.30;99.90;;;;;;4995424;28;20616;-79
2023/12/15 08:29:05;;;;;;;14.23;9.80;;;3.30;99.90;;;;;;4995849;28;20034;-80
2023/12/15 08:31:31;;;;;;;13.90;9.30;;;3.40;99.90;;;;;;4977407;28;20026;-80
2023/12/15 08:33:57;;;;;;;14.27;9.50;;;3.40;99.90;;;;;;4996574;28;20038;-79
2023/12/15 08:36:23;;;;;;;13.17;9.50;;;3.40;99.90;;;;;;4992701;28;20105;-79
2023/12/15 08:38:48;;;;;;;13.20;9.27;;;3.40;99.90;;;;;;4991732;28;20030;-79
2023/12/15 08:41:14;;;;;;;12.90;9.00;;;3.40;99.90;;;;;;4991778;28;20736;-79
2023/12/15 08:43:40;;;;;;;13.80;9.70;;;3.50;99.90;;;;;;4991575;28;20038;-79
2023/12/15 08:46:05;;;;;;;12.83;8.40;;;3.50;99.90;;;;;;4992291;28;20036;-79
2023/12/15 08:48:31;;;;;;;12.90;8.60;;;3.60;99.90;;;;;;4993209;28;20061;-79
2023/12/15 08:50:57;;;;;;;11.43;8.13;;;3.60;99.90;;;;;;4992982;28;20038;-79
2023/12/15 08:53:22;;;;;;;11.87;7.83;;;3.60;99.90;;;;;;4993447;28;20029;-80
2023/12/15 08:55:48;;;;;;;11.40;8.30;;;3.70;99.90;;;;;;4994106;28;20090;-79
2023/12/15 08:58:14;;;;;;;14.33;7.63;;;3.70;99.90;;;;;;4994527;28;20029;-79
2023/12/15 09:00:40;;;;;;;11.90;7.87;;;3.70;99.90;;;;;;4995220;28;20169;-79
2023/12/15 09:03:07;;;;;;;12.17;8.87;;;3.70;99.90;;;;;;4995328;28;20121;-79
2023/12/15 09:05:33;;;;;;;12.03;7.73;;;3.70;99.90;;;;;;4995699;28;20116;-79
2023/12/15 09:08:00;;;;;;;14.03;7.60;;;3.70;99.90;;;;;;4993830;28;21454;-79
2023/12/15 09:10:26;;;;;;;12.50;8.83;;;3.70;99.90;;;;;;4996057;28;20097;-78
2023/12/15 09:12:52;;;;;;;10.83;7.73;;;3.70;99.90;;;;;;4993400;28;20038;-79
2023/12/15 09:15:17;;;;;;;14.30;8.37;;;3.70;99.90;;;;;;4994549;28;20037;-79
2023/12/15 09:17:44;;;;;;;12.97;8.47;;;3.80;99.90;;;;;;4993787;28;20026;-79
2023/12/15 09:20:10;;;;;;;12.10;7.97;;;3.80;99.90;;;;;;4993421;28;20037;-79
2023/12/15 09:22:36;;;;;;;11.60;8.27;;;3.90;99.90;;;;;;4995497;28;20030;-80
2023/12/15 09:25:02;;;;;;;10.50;7.33;;;3.90;99.90;;;;;;4996249;28;20030;-79
2023/12/15 09:27:28;;;;;;;12.33;8.10;;;4.00;99.90;;;;;;4997557;28;20065;-79
2023/12/15 09:29:53;;;;;;;12.30;7.70;;;4.10;99.90;;;;;;4998887;28;20030;-79
2023/12/15 09:32:20;;;;;;;14.73;8.73;;;4.10;99.90;;;;;;4997326;28;20037;-80
2023/12/15 09:34:46;;;;;;;12.83;9.17;;;4.10;99.90;;;;;;4997499;28;20040;-79
2023/12/15 09:37:12;;;;;;;13.60;8.80;;;4.10;99.90;;;;;;4995367;28;20030;-79
2023/12/15 09:39:38;;;;;;;12.10;7.97;;;4.10;99.90;;;;;;4995409;28;20342;-79
2023/12/15 09:42:04;;;;;;;10.73;7.53;;;4.10;99.90;;;;;;4996330;28;20034;-81
2023/12/15 09:44:30;;;;;;;13.47;9.60;;;4.10;99.90;;;;;;4997551;28;20029;-80
2023/12/15 09:46:57;;;;;;;13.47;8.77;;;4.10;99.90;;;;;;4998848;28;20040;-81
2023/12/15 09:49:25;;;;;;;10.73;7.83;;;4.10;99.90;;;;;;4998734;28;21288;-80
2023/12/15 09:51:51;;;;;;;14.33;8.53;;;4.10;99.90;;;;;;4997610;28;20505;-81
2023/12/15 09:54:19;;;;;;;12.37;8.90;;;4.20;99.90;;;;;;4998493;28;20021;-81
2023/12/15 09:56:46;;;;;;;12.40;8.00;;;4.30;99.90;;;;;;4997694;28;20033;-81
2023/12/15 09:59:12;;;;;;;11.90;8.37;;;4.20;99.90;;;;;;4999358;28;20026;-81
2023/12/15 10:01:38;;;;;;;11.67;8.30;;;4.20;99.90;;;;;;5000331;28;20038;-81
2023/12/15 10:04:07;;;;;;;13.83;8.57;;;4.20;99.90;;;;;;5009556;28;20037;-85
2023/12/15 10:06:36;;;;;;;12.13;8.07;;;4.10;99.90;;;;;;5010052;28;20044;-80
2023/12/15 10:09:06;;;;;;;12.17;7.90;;;4.10;99.90;;;;;;5002396;28;20043;-83
2023/12/15 10:11:36;;;;;;;12.70;8.20;;;4.10;99.90;;;;;;4994650;28;20056;-83
2023/12/15 10:14:04;;;;;;;11.20;8.10;;;4.10;99.90;;;;;;4999712;28;20033;-84
2023/12/15 10:16:30;;;;;;;11.93;8.80;;;4.00;99.90;;;;;;4996244;28;20114;-82
2023/12/15 10:18:55;;;;;;;12.77;8.93;;;4.00;99.90;;;;;;4994754;28;20034;-86
2023/12/15 10:21:21;;;;;;;12.27;8.50;;;4.10;99.90;;;;;;4996178;28;20026;-84
2023/12/15 10:23:46;;;;;;;10.93;8.70;;;4.00;99.90;;;;;;4996785;28;20040;-87
2023/12/15 10:26:14;;;;;;;11.40;7.63;;;4.00;99.90;;;;;;4998925;28;20030;-89
2023/12/15 10:28:40;;;;;;;16.17;7.77;;;4.00;99.90;;;;;;4996838;28;20505;-82
2023/12/15 10:31:07;;;;;;;11.87;7.90;;;4.00;99.90;;;;;;4995448;28;20029;-84
2023/12/15 10:33:33;;;;;;;10.00;7.47;;;4.00;99.90;;;;;;4978528;28;20030;-84
2023/12/15 10:36:03;;;;;;;14.47;8.70;;;4.00;99.90;;;;;;4996635;28;20121;-84
2023/12/15 10:38:31;;;;;;;9.77;7.03;;;4.10;99.90;;;;;;5004112;28;20287;-84
2023/12/15 10:40:58;;;;;;;13.30;7.70;;;4.00;99.90;;;;;;5002525;28;20022;-83
2023/12/15 10:43:23;;;;;;;9.10;7.27;;;4.10;99.90;;;;;;5002662;28;20030;-84
2023/12/15 10:45:51;;;;;;;11.43;7.10;;;4.10;99.90;;;;;;5002491;28;20073;-84
2023/12/15 10:48:18;;;;;;;11.47;8.07;;;4.10;99.90;;;;;;5000902;28;20041;-83
2023/12/15 10:50:45;;;;;;;10.37;7.40;;;4.10;99.90;;;;;;4999917;28;20028;-82
2023/12/15 10:53:13;;;;;;;12.00;7.53;;;4.10;99.90;;;;;;4998784;28;20030;-86
2023/12/15 10:55:43;;;;;;;9.97;7.27;;;4.20;99.90;;;;;;4997684;28;20521;-86
2023/12/15 10:58:11;;;;;;;12.07;7.93;;;4.20;99.90;;;;;;4997976;28;20084;-86
2023/12/15 11:00:38;;;;;;;10.37;7.73;;;4.20;99.90;;;;;;4996169;28;20025;-86
2023/12/15 11:03:05;;;;;;;11.77;8.00;;;4.20;99.90;;;;;;4996806;28;20030;-86
2023/12/15 11:05:32;;;;;;;13.30;8.17;;;4.20;99.90;;;;;;4995203;28;20528;-86
2023/12/15 11:07:59;;;;;;;12.70;7.83;;;4.10;99.90;;;;;;4995046;28;20064;-83
2023/12/15 11:10:25;;;;;;;11.90;8.03;;;4.10;99.90;;;;;;4997789;28;20042;-86
2023/12/15 11:12:52;;;;;;;10.77;7.87;;;4.10;99.90;;;;;;4995470;28;20030;-86
2023/12/15 11:15:19;;;;;;;12.60;8.03;;;4.20;99.90;;;;;;4995351;28;21344;-86
2023/12/15 11:17:52;;;;;;;12.07;8.20;;;4.20;99.90;;;;;;4993571;28;20369;-86
2023/12/15 11:20:22;;;;;;;12.47;7.57;;;4.20;99.90;;;;;;5000713;28;20915;-86
2023/12/15 11:22:52;;;;;;;9.43;6.80;;;4.20;99.90;;;;;;4995055;28;21015;-82
2023/12/15 11:25:19;;;;;;;10.17;7.00;;;4.20;99.90;;;;;;4995435;28;20033;-86
2023/12/15 11:27:58;;;;;;;13.10;8.17;;;4.30;99.90;;;;;;4977301;28;20037;-85
2023/12/15 11:30:31;;;;;;;14.13;7.23;;;4.30;99.90;;;;;;4993408;28;20018;-87
2023/12/15 11:32:57;;;;;;;13.10;7.90;;;4.30;99.90;;;;;;4992357;28;20045;-87
2023/12/15 11:35:35;;;;;;;11.03;7.57;;;4.40;99.90;;;;;;4993676;28;20026;-87
2023/12/15 11:38:03;;;;;;;10.07;7.30;;;4.40;99.90;;;;;;4994265;28;20041;-87
2023/12/15 11:40:30;;;;;;;10.17;7.27;;;4.40;99.90;;;;;;4994959;28;20026;-81
2023/12/15 11:42:58;;;;;;;10.47;7.10;;;4.50;99.90;;;;;;4979370;28;20045;-88
2023/12/15 11:45:29;;;;;;;10.10;7.50;;;4.50;99.90;;;;;;4993032;28;20030;-87
2023/12/15 11:47:54;;;;;;;11.03;7.17;;;4.50;99.90;;;;;;4995445;28;20128;-87
2023/12/15 11:50:21;;;;;;;10.50;7.70;;;4.70;99.90;;;;;;4997637;28;20117;-88
2023/12/15 11:52:47;;;;;;;10.93;7.47;;;4.70;99.90;;;;;;4993746;28;20042;-87
2023/12/15 11:55:13;;;;;;;11.03;7.03;;;4.70;99.90;;;;;;4993194;28;20030;-87
2023/12/15 11:57:39;;;;;;;9.97;7.37;;;4.70;99.90;;;;;;4993691;28;20030;-86
2023/12/15 12:00:05;;;;;;;14.17;7.27;;;4.70;99.90;;;;;;4997700;28;20034;-84
2023/12/15 12:02:30;;;;;;;10.70;7.50;;;4.80;99.90;;;;;;4997373;28;20132;-86
2023/12/15 12:04:57;;;;;;;9.70;7.10;;;4.80;99.90;;;;;;4994474;28;20900;-85
2023/12/15 12:07:23;;;;;;;13.73;7.80;;;4.80;99.90;;;;;;4995334;28;20038;-84
2023/12/15 12:09:49;;;;;;;12.07;7.27;;;4.90;99.90;;;;;;4993163;28;20065;-84
2023/12/15 12:12:14;;;;;;;10.70;6.83;;;5.00;99.90;;;;;;4992779;28;20026;-85
2023/12/15 12:14:42;;;;;;;10.97;6.90;;;5.00;99.90;;;;;;4995149;28;20883;-85
2023/12/15 12:17:10;;;;;;;10.80;6.83;;;5.00;99.90;;;;;;4994634;28;20026;-86
2023/12/15 12:19:41;;;;;;;11.83;6.97;;;5.10;99.90;;;;;;4993939;28;20045;-85
2023/12/15 12:22:13;;;;;;;9.07;6.53;;;5.10;99.90;;;;;;4993671;28;20025;-85
2023/12/15 12:24:39;;;;;;;11.30;7.07;;;5.10;99.90;;;;;;4994627;28;20036;-85
2023/12/15 12:27:10;;;;;;;9.63;6.57;;;5.10;99.90;;;;;;4988547;28;20049;-85
2023/12/15 12:29:39;;;;;;;13.10;6.53;;;5.10;99.90;;;;;;4984719;28;20642;-85
2023/12/15 12:32:05;;;;;;;7.93;6.23;;;5.10;99.90;;;;;;4984706;28;20084;-85
2023/12/15 12:34:31;;;;;;;8.83;6.93;;;5.20;99.90;;;;;;4985217;28;20783;-85
2023/12/15 12:36:56;;;;;;;10.70;6.60;;;5.20;99.90;;;;;;4984462;28;20057;-85